Time;durP1;ratioP1;P1;durP2;ratioP2;P2;SDS_P1;SDS_P2;PMS_P1;PMS_P2;Temp;Humidity;BMP_temperature;BMP_pressure;BME280_temperature;BME280_humidity;BME280_pressure;Samples;Min_cycle;Max_cycle;Signal;HPM_P1;HPM_P2
2021/12/13 00:01:23;;;;;;;30.80;13.63;;;9.70;99.90;;;;;;5090456;28;20048;-64
2021/12/13 00:04:06;;;;;;;24.90;11.23;;;9.70;99.90;;;;;;5090901;28;20059;-64
2021/12/13 00:06:37;;;;;;;29.42;12.52;;;9.70;99.90;;;;;;5089396;28;20047;-64
2021/12/13 00:09:11;;;;;;;26.90;12.73;;;9.70;99.90;;;;;;5090410;28;20044;-64
2021/12/13 00:11:41;;;;;;;20.23;10.80;;;9.70;99.90;;;;;;5090941;28;20127;-64
2021/12/13 00:14:15;;;;;;;20.88;11.63;;;9.70;99.90;;;;;;5090748;28;20059;-64
2021/12/13 00:16:47;;;;;;;29.20;13.40;;;9.80;99.90;;;;;;5089017;28;20073;-64
2021/12/13 00:19:15;;;;;;;;;;;9.80;99.90;;;;;;5089996;28;20048;-64
2021/12/13 00:21:46;;;;;;;19.25;9.98;;;9.70;99.90;;;;;;5090830;28;20019;-64
2021/12/13 00:24:25;;;;;;;16.30;9.63;;;9.70;99.90;;;;;;5088840;28;20071;-64
2021/12/13 00:26:59;;;;;;;17.52;9.32;;;9.80;99.90;;;;;;5090753;28;20098;-64
2021/12/13 00:29:42;;;;;;;16.88;9.93;;;9.80;99.90;;;;;;5088338;28;20052;-64
2021/12/13 00:32:22;;;;;;;26.38;12.77;;;9.80;99.90;;;;;;5090632;28;20562;-64
2021/12/13 00:34:51;;;;;;;21.35;11.65;;;9.80;99.90;;;;;;5089236;28;20451;-64
2021/12/13 00:37:22;;;;;;;23.63;11.82;;;9.80;99.90;;;;;;5090156;28;20093;-64
2021/12/13 00:40:14;;;;;;;28.63;12.88;;;9.80;99.90;;;;;;5090458;28;20367;-64
2021/12/13 00:42:50;;;;;;;24.55;11.65;;;9.80;99.90;;;;;;5089272;28;20556;-64
2021/12/13 00:45:21;;;;;;;38.42;14.75;;;9.90;99.90;;;;;;5090094;28;20123;-64
2021/12/13 00:47:47;;;;;;;36.22;17.10;;;9.80;99.90;;;;;;5089168;28;20059;-64
2021/12/13 00:50:26;;;;;;;37.28;13.80;;;9.80;99.90;;;;;;5088911;28;20067;-64
2021/12/13 00:52:54;;;;;;;42.63;16.98;;;9.70;99.90;;;;;;5090493;28;20044;-65
2021/12/13 00:55:26;;;;;;;40.00;16.58;;;9.70;99.90;;;;;;5090864;28;20044;-64
2021/12/13 00:58:30;;;;;;;57.75;22.58;;;9.70;99.90;;;;;;5089879;28;20123;-64
2021/12/13 01:01:06;;;;;;;39.42;16.15;;;9.80;99.90;;;;;;5087449;28;20052;-64
2021/12/13 01:03:46;;;;;;;45.80;20.85;;;9.70;99.90;;;;;;5090561;28;20048;-64
2021/12/13 01:06:49;;;;;;;37.50;18.05;;;9.70;99.90;;;;;;5088520;28;20043;-64
2021/12/13 01:09:52;;;;;;;31.77;15.65;;;9.70;99.90;;;;;;5089252;28;20069;-64
2021/12/13 01:12:20;;;;;;;38.22;17.42;;;9.70;99.90;;;;;;5089809;28;20098;-64
2021/12/13 01:15:04;;;;;;;39.00;18.00;;;9.70;99.90;;;;;;5089506;28;20402;-63
2021/12/13 01:17:51;;;;;;;40.92;18.45;;;9.70;99.90;;;;;;5088620;28;20061;-64
2021/12/13 01:23:39;;;;;;;37.47;15.30;;;9.80;99.90;;;;;;5093937;28;20052;-64
2021/12/13 01:28:47;;;;;;;33.20;16.83;;;9.70;99.90;;;;;;5092511;28;20063;-64
2021/12/13 01:31:24;;;;;;;29.95;12.98;;;9.70;99.90;;;;;;5094005;28;20048;-64
2021/12/13 01:33:52;;;;;;;42.33;14.18;;;9.70;99.90;;;;;;5092835;28;20051;-64
2021/12/13 01:36:25;;;;;;;25.88;12.27;;;9.70;99.90;;;;;;5092754;28;20066;-64
2021/12/13 01:38:58;;;;;;;23.98;12.90;;;9.70;99.90;;;;;;5093462;28;20555;-64
2021/12/13 01:41:43;;;;;;;19.73;11.10;;;9.70;99.90;;;;;;5093069;28;20490;-64
2021/12/13 01:44:21;;;;;;;19.30;10.60;;;9.80;99.90;;;;;;5093697;28;20117;-64
2021/12/13 01:46:51;;;;;;;17.20;10.95;;;9.80;99.90;;;;;;5092864;28;20093;-64
2021/12/13 01:49:19;;;;;;;20.10;11.07;;;9.80;99.90;;;;;;5092549;28;20059;-64
2021/12/13 01:51:45;;;;;;;19.70;11.00;;;9.80;99.90;;;;;;5093371;28;20126;-64
2021/12/13 01:54:21;;;;;;;20.90;10.50;;;9.80;99.90;;;;;;5091296;28;20059;-64
2021/12/13 01:58:08;;;;;;;18.23;10.52;;;9.80;99.90;;;;;;5092055;28;20052;-64
2021/12/13 02:00:17;;;;;;;19.77;10.88;;;9.80;99.90;;;;;;5079710;28;20052;-64
2021/12/13 02:02:50;;;;;;;20.10;10.82;;;9.80;99.90;;;;;;5091184;28;20048;-64
2021/12/13 02:05:23;;;;;;;25.45;13.43;;;9.80;99.90;;;;;;5093226;28;20044;-64
2021/12/13 02:07:58;;;;;;;33.17;15.48;;;9.80;99.90;;;;;;5091255;28;20048;-64
2021/12/13 02:10:27;;;;;;;26.58;14.35;;;9.90;99.90;;;;;;5092128;28;20083;-64
2021/12/13 02:12:59;;;;;;;23.92;13.18;;;9.90;99.90;;;;;;5092643;28;20125;-64
2021/12/13 02:18:15;;;;;;;39.42;16.27;;;9.80;99.90;;;;;;5093250;28;20068;-64
2021/12/13 02:20:48;;;;;;;39.20;18.83;;;9.80;99.90;;;;;;5091713;28;20105;-64
2021/12/13 02:23:14;;;;;;;45.85;18.35;;;9.90;99.90;;;;;;5091163;28;20127;-64
2021/12/13 02:25:46;;;;;;;40.30;16.83;;;9.90;99.90;;;;;;5092693;28;20131;-64
2021/12/13 02:28:18;;;;;;;39.92;18.55;;;9.80;99.90;;;;;;5092802;28;20093;-64
2021/12/13 02:30:54;;;;;;;43.88;20.27;;;9.80;99.90;;;;;;5090554;28;20059;-63
2021/12/13 02:33:26;;;;;;;33.83;17.13;;;9.90;99.90;;;;;;5092923;28;20132;-64
2021/12/13 02:35:56;;;;;;;46.28;19.30;;;9.80;99.90;;;;;;5090485;28;20048;-64
2021/12/13 02:38:23;;;;;;;42.70;18.63;;;9.80;99.90;;;;;;5080100;28;20036;-64
2021/12/13 02:40:50;;;;;;;41.60;18.45;;;9.80;99.90;;;;;;5083368;28;20526;-63
2021/12/13 02:43:22;;;;;;;43.85;17.70;;;9.80;99.90;;;;;;5071576;28;20053;-63
2021/12/13 02:45:51;;;;;;;40.77;18.40;;;9.70;99.90;;;;;;5072215;28;20037;-64
2021/12/13 02:48:34;;;;;;;40.25;16.38;;;9.70;99.90;;;;;;5072334;28;20058;-64
2021/12/13 02:51:13;;;;;;;42.70;16.52;;;9.70;99.90;;;;;;5071457;28;20059;-64
2021/12/13 02:53:52;;;;;;;33.97;17.35;;;9.70;99.90;;;;;;5073039;28;20486;-64
2021/12/13 02:56:24;;;;;;;39.92;16.98;;;9.60;99.90;;;;;;5080882;28;20135;-64
2021/12/13 02:58:51;;;;;;;45.28;16.73;;;9.60;99.90;;;;;;5071047;28;20410;-64
2021/12/13 03:01:25;;;;;;;34.53;16.38;;;9.60;99.90;;;;;;5071880;28;20116;-64
2021/12/13 03:03:59;;;;;;;32.17;13.98;;;9.70;99.90;;;;;;5082384;28;20052;-64
2021/12/13 03:06:31;;;;;;;31.85;14.60;;;9.70;99.90;;;;;;5072020;28;20052;-64
2021/12/13 03:09:05;;;;;;;33.03;15.05;;;9.70;99.90;;;;;;5072014;28;20051;-63
2021/12/13 03:11:33;;;;;;;37.25;14.43;;;9.70;99.90;;;;;;5070788;28;20131;-64
2021/12/13 03:14:08;;;;;;;34.45;14.63;;;9.70;99.90;;;;;;5071366;28;20061;-64
2021/12/13 03:16:50;;;;;;;37.03;15.43;;;9.60;99.90;;;;;;5081609;28;20062;-63
2021/12/13 03:19:55;;;;;;;34.45;14.95;;;9.60;99.90;;;;;;5069242;28;20094;-63
2021/12/13 03:22:46;;;;;;;32.33;13.90;;;9.60;99.90;;;;;;5047625;28;20067;-63
2021/12/13 03:25:21;;;;;;;31.40;13.75;;;9.60;99.90;;;;;;5069776;28;20057;-63
2021/12/13 03:27:52;;;;;;;25.45;14.07;;;9.60;99.90;;;;;;5108356;27;20122;-63
2021/12/13 03:30:25;;;;;;;31.63;13.50;;;9.40;99.90;;;;;;5102521;28;20059;-63
2021/12/13 03:33:06;;;;;;;35.22;14.68;;;9.60;99.90;;;;;;5110858;28;20697;-63
2021/12/13 03:35:40;;;;;;;29.63;13.20;;;9.60;99.90;;;;;;5079252;28;20044;-63
2021/12/13 03:38:25;;;;;;;19.75;10.70;;;9.50;99.90;;;;;;5090314;28;20055;-63
2021/12/13 03:40:53;;;;;;;23.88;12.10;;;9.60;99.90;;;;;;5090618;28;20048;-63
2021/12/13 03:43:35;;;;;;;23.10;13.02;;;9.50;99.90;;;;;;5091438;28;20036;-63
2021/12/13 03:46:03;;;;;;;26.70;12.63;;;9.60;99.90;;;;;;5089350;28;20395;-63
2021/12/13 03:48:34;;;;;;;22.65;11.75;;;9.50;99.90;;;;;;5089842;28;20036;-64
2021/12/13 03:51:07;;;;;;;29.77;10.82;;;9.50;99.90;;;;;;5091437;28;20071;-63
2021/12/13 03:53:33;;;;;;;;;;;9.50;99.90;;;;;;5089534;28;20070;-63
2021/12/13 03:56:06;;;;;;;26.95;11.68;;;9.40;99.90;;;;;;5091478;28;19932;-64
2021/12/13 03:58:44;;;;;;;26.42;9.70;;;9.40;99.90;;;;;;5095202;28;20067;-63
2021/12/13 04:01:11;;;;;;;21.10;9.40;;;9.40;99.90;;;;;;5103704;28;20047;-64
2021/12/13 04:03:38;;;;;;;21.80;10.82;;;9.30;99.90;;;;;;5099869;28;20040;-64
2021/12/13 04:06:04;;;;;;;27.15;8.75;;;9.30;99.90;;;;;;5089948;28;20056;-63
2021/12/13 04:08:30;;;;;;;16.08;8.10;;;9.50;99.90;;;;;;5090295;28;20112;-63
2021/12/13 04:11:04;;;;;;;11.98;6.80;;;9.40;99.90;;;;;;5084729;28;20056;-64
2021/12/13 04:13:53;;;;;;;16.02;7.25;;;9.40;99.90;;;;;;5071567;28;20498;-63
2021/12/13 04:16:30;;;;;;;17.90;6.70;;;9.30;99.90;;;;;;5070118;28;20060;-64
2021/12/13 04:21:49;;;;;;;16.08;6.05;;;9.40;99.90;;;;;;5069869;28;20474;-64
2021/12/13 04:24:52;;;;;;;11.88;6.22;;;9.40;99.90;;;;;;5070902;28;20131;-63
2021/12/13 04:27:27;;;;;;;13.07;5.93;;;9.40;99.90;;;;;;5070883;28;20060;-64
2021/12/13 04:29:57;;;;;;;10.13;6.40;;;9.30;99.90;;;;;;5072251;28;20048;-64
2021/12/13 04:32:33;;;;;;;15.50;6.18;;;9.40;99.90;;;;;;5080885;28;20406;-64
2021/12/13 04:35:04;;;;;;;13.07;5.40;;;9.30;99.90;;;;;;5080439;28;20044;-64
2021/12/13 04:37:39;;;;;;;14.63;5.53;;;9.40;99.90;;;;;;5078184;28;20048;-64
2021/12/13 04:40:17;;;;;;;11.45;4.95;;;9.30;99.90;;;;;;5070836;28;20053;-64
2021/12/13 04:42:43;;;;;;;9.95;4.60;;;9.40;99.90;;;;;;5068561;28;20048;-64
2021/12/13 04:45:18;;;;;;;8.95;4.63;;;9.30;99.90;;;;;;5070598;28;20055;-64
2021/12/13 04:47:57;;;;;;;9.77;4.38;;;9.30;99.90;;;;;;5070228;28;20048;-63
2021/12/13 04:50:52;;;;;;;7.72;3.95;;;9.30;99.90;;;;;;5068788;28;20487;-63
2021/12/13 04:53:25;;;;;;;7.30;3.72;;;9.30;99.90;;;;;;5063343;28;20113;-64
2021/12/13 04:55:53;;;;;;;9.35;3.70;;;9.20;99.90;;;;;;5071956;28;20056;-64
2021/12/13 04:58:19;;;;;;;11.02;3.72;;;9.20;99.90;;;;;;5072535;28;20067;-63
2021/12/13 05:00:49;;;;;;;12.32;3.60;;;9.30;99.90;;;;;;5089840;28;20079;-64
2021/12/13 05:03:17;;;;;;;9.02;3.25;;;9.30;99.90;;;;;;5073634;28;20075;-63
2021/12/13 05:05:45;;;;;;;7.68;3.13;;;9.30;99.90;;;;;;5073949;28;20051;-64
2021/12/13 05:08:14;;;;;;;5.15;2.78;;;9.30;99.90;;;;;;5074149;28;20406;-64
2021/12/13 05:10:46;;;;;;;5.35;3.05;;;9.20;99.90;;;;;;5073100;28;20094;-64
2021/12/13 05:13:21;;;;;;;13.23;2.95;;;9.30;99.90;;;;;;5073731;28;20487;-63
2021/12/13 05:16:00;;;;;;;7.25;2.60;;;9.20;99.90;;;;;;5073821;28;20048;-63
2021/12/13 05:18:29;;;;;;;4.80;2.67;;;9.30;99.90;;;;;;5099492;28;20149;-63
2021/12/13 05:21:03;;;;;;;6.97;2.40;;;9.20;99.90;;;;;;5085062;28;20054;-63
2021/12/13 05:23:32;;;;;;;4.32;2.25;;;9.30;99.90;;;;;;5096938;28;20173;-64
2021/12/13 05:26:01;;;;;;;4.35;1.80;;;9.20;99.90;;;;;;5092375;28;20079;-63
2021/12/13 05:28:39;;;;;;;7.55;2.08;;;9.30;99.90;;;;;;5092669;28;20047;-64
2021/12/13 05:31:15;;;;;;;10.73;2.88;;;9.20;99.90;;;;;;5092715;28;20059;-64
2021/12/13 05:33:42;;;;;;;4.22;2.38;;;9.20;99.90;;;;;;5092863;28;20781;-64
2021/12/13 05:36:18;;;;;;;4.85;2.60;;;9.30;99.90;;;;;;5092469;28;20451;-64
2021/12/13 05:38:47;;;;;;;4.68;3.00;;;9.30;99.90;;;;;;5092920;28;20117;-64
2021/12/13 05:41:21;;;;;;;8.85;3.47;;;9.30;99.90;;;;;;5092476;28;20047;-63
2021/12/13 05:43:50;;;;;;;8.80;3.60;;;9.20;99.90;;;;;;5093448;28;20070;-64
2021/12/13 05:46:51;;;;;;;10.02;4.05;;;9.30;99.90;;;;;;5091713;28;20050;-63
2021/12/13 05:49:34;;;;;;;4.18;3.05;;;9.20;99.90;;;;;;5070646;28;20139;-64
2021/12/13 05:52:13;;;;;;;7.72;3.47;;;9.20;99.90;;;;;;5093695;28;20047;-64
2021/12/13 05:54:50;;;;;;;4.35;3.78;;;9.30;99.90;;;;;;5091178;28;20517;-64
2021/12/13 05:57:23;;;;;;;6.10;3.50;;;9.30;99.90;;;;;;5092250;28;20051;-64
2021/12/13 06:00:19;;;;;;;4.50;3.58;;;9.20;99.90;;;;;;5098512;28;20055;-64
2021/12/13 06:03:07;;;;;;;6.78;3.88;;;9.20;99.90;;;;;;5113385;28;20047;-63
2021/12/13 06:05:48;;;;;;;11.23;5.32;;;9.30;99.90;;;;;;5072952;28;20049;-64
2021/12/13 06:08:27;;;;;;;4.88;3.25;;;9.30;99.90;;;;;;5072479;28;20056;-63
2021/12/13 06:10:57;;;;;;;9.05;4.93;;;9.20;99.90;;;;;;5071544;28;20130;-64
2021/12/13 06:13:42;;;;;;;5.68;3.70;;;9.20;99.90;;;;;;5071596;28;20060;-63
2021/12/13 06:16:19;;;;;;;12.30;5.50;;;9.30;99.90;;;;;;5072917;28;20182;-64
2021/12/13 06:19:25;;;;;;;8.10;4.38;;;9.20;99.90;;;;;;5072687;28;20071;-64
2021/12/13 06:22:08;;;;;;;6.82;4.95;;;9.20;99.90;;;;;;5071730;28;20557;-64
2021/12/13 06:24:40;;;;;;;5.18;4.57;;;9.30;99.90;;;;;;5071202;28;20058;-64
2021/12/13 06:27:13;;;;;;;6.20;4.72;;;9.20;99.90;;;;;;5071784;28;20052;-63
2021/12/13 06:29:59;;;;;;;10.65;5.28;;;9.20;99.90;;;;;;5096123;28;20858;-63
2021/12/13 06:32:34;;;;;;;8.50;5.22;;;9.20;99.90;;;;;;5099058;28;20056;-64
2021/12/13 06:35:28;;;;;;;7.82;5.35;;;9.10;99.90;;;;;;5094098;28;20044;-64
2021/12/13 06:37:54;;;;;;;9.95;4.93;;;9.20;99.90;;;;;;5094025;28;20498;-63
2021/12/13 06:40:28;;;;;;;14.68;6.18;;;9.20;99.90;;;;;;5101030;28;20122;-63
2021/12/13 06:43:01;;;;;;;8.13;5.85;;;9.10;99.90;;;;;;5106717;28;20039;-63
2021/12/13 06:45:34;;;;;;;13.23;6.75;;;9.10;99.90;;;;;;5096455;28;20522;-64
2021/12/13 06:48:03;;;;;;;10.88;6.13;;;9.10;99.90;;;;;;5099835;28;20820;-63
2021/12/13 06:50:33;;;;;;;9.70;6.00;;;9.00;99.90;;;;;;5097112;28;20525;-63
2021/12/13 06:53:19;;;;;;;9.32;6.43;;;9.10;99.90;;;;;;5100209;28;20142;-64
2021/12/13 06:55:46;;;;;;;12.15;5.90;;;9.00;99.90;;;;;;5095152;28;20126;-63
2021/12/13 06:58:25;;;;;;;12.88;7.10;;;9.20;99.90;;;;;;5091084;28;20043;-63
2021/12/13 07:00:54;;;;;;;12.80;6.60;;;9.00;99.90;;;;;;5091159;28;20060;-63
2021/12/13 07:03:24;;;;;;;12.55;6.43;;;9.10;99.90;;;;;;5097734;28;20044;-63
2021/12/13 07:05:57;;;;;;;10.73;7.25;;;9.20;99.90;;;;;;5100104;28;20502;-63
2021/12/13 07:08:28;;;;;;;11.52;7.15;;;9.00;99.90;;;;;;5097182;28;20375;-63
2021/12/13 07:10:55;;;;;;;18.00;8.30;;;9.10;99.90;;;;;;5098987;28;20059;-63
2021/12/13 07:13:30;;;;;;;10.18;6.50;;;9.00;99.90;;;;;;5090532;28;20066;-63
2021/12/13 07:16:26;;;;;;;8.80;6.20;;;9.00;99.90;;;;;;5090655;28;20063;-63
2021/12/13 07:19:02;;;;;;;12.80;7.47;;;9.10;99.90;;;;;;5082613;28;20048;-63
2021/12/13 07:21:41;;;;;;;8.70;6.43;;;9.00;99.90;;;;;;5091813;28;20055;-63
2021/12/13 07:24:09;;;;;;;13.52;6.75;;;9.00;99.90;;;;;;5091074;28;20055;-63
2021/12/13 07:26:53;;;;;;;11.38;7.28;;;9.10;99.90;;;;;;5090270;28;20048;-63
2021/12/13 07:29:21;;;;;;;8.65;6.43;;;9.10;99.90;;;;;;5091467;28;20040;-63
2021/12/13 07:32:07;;;;;;;10.30;6.70;;;9.10;99.90;;;;;;5090405;28;20054;-64
2021/12/13 07:34:46;;;;;;;10.63;6.03;;;9.00;99.90;;;;;;5089714;28;20122;-63
2021/12/13 07:37:13;;;;;;;10.43;6.72;;;8.90;99.90;;;;;;5091581;28;20040;-63
2021/12/13 07:39:38;;;;;;;12.55;7.72;;;9.00;99.90;;;;;;5090590;28;20043;-64
2021/12/13 07:42:08;;;;;;;9.32;6.93;;;8.90;99.90;;;;;;5091444;28;20117;-63
2021/12/13 07:44:48;;;;;;;13.07;6.80;;;9.00;99.90;;;;;;5091131;28;20079;-63
2021/12/13 07:47:24;;;;;;;13.60;7.40;;;9.00;99.90;;;;;;5094471;28;20056;-63
2021/12/13 07:49:59;;;;;;;10.27;7.45;;;9.10;99.90;;;;;;5099637;28;20059;-63
2021/12/13 07:52:29;;;;;;;11.40;8.52;;;9.10;99.90;;;;;;5089443;28;20410;-63
2021/12/13 07:54:56;;;;;;;10.85;8.02;;;9.00;99.90;;;;;;5098435;28;20052;-64
2021/12/13 07:57:28;;;;;;;12.88;8.13;;;9.00;99.90;;;;;;5110398;28;20055;-63
2021/12/13 07:59:53;;;;;;;13.13;8.10;;;9.00;99.90;;;;;;5102457;28;20494;-63
2021/12/13 08:02:36;;;;;;;12.82;7.97;;;9.00;99.90;;;;;;5097817;28;20047;-64
2021/12/13 08:05:13;;;;;;;16.17;8.00;;;9.00;99.90;;;;;;5095646;28;20040;-63
2021/12/13 08:07:48;;;;;;;15.05;8.90;;;9.00;99.90;;;;;;5090072;28;20047;-64
2021/12/13 08:10:29;;;;;;;14.00;8.55;;;9.10;99.90;;;;;;5091046;28;20044;-64
2021/12/13 08:12:57;;;;;;;11.90;8.57;;;9.00;99.90;;;;;;5109955;28;20047;-63
2021/12/13 08:15:34;;;;;;;14.93;9.30;;;9.00;99.90;;;;;;5110676;28;20140;-63
2021/12/13 08:18:09;;;;;;;13.63;8.32;;;9.10;99.90;;;;;;5110025;28;20039;-64
2021/12/13 08:20:45;;;;;;;19.55;10.15;;;9.10;99.90;;;;;;5109521;28;20035;-64
2021/12/13 08:23:18;;;;;;;14.63;10.25;;;9.00;99.90;;;;;;5095470;28;20048;-64
2021/12/13 08:25:44;;;;;;;;;;;9.10;99.90;;;;;;5088858;28;20047;-67
2021/12/13 08:28:15;;;;;;;15.35;9.63;;;9.00;99.90;;;;;;5095958;28;19930;-71
2021/12/13 08:30:56;;;;;;;19.17;10.25;;;9.10;99.90;;;;;;5100882;28;20060;-71
2021/12/13 08:33:30;;;;;;;15.65;10.32;;;9.10;99.90;;;;;;5104124;28;20486;-67
2021/12/13 08:35:56;;;;;;;16.42;10.02;;;9.10;99.90;;;;;;5107982;28;20050;-66
2021/12/13 08:38:49;;;;;;;17.25;11.27;;;9.20;99.90;;;;;;5114970;28;20127;-66
2021/12/13 08:41:14;;;;;;;15.40;10.00;;;9.20;99.90;;;;;;5096727;28;20052;-66
2021/12/13 08:43:42;;;;;;;18.83;12.05;;;9.20;99.90;;;;;;5088458;28;20063;-66
2021/12/13 08:46:10;;;;;;;18.33;12.00;;;9.20;99.90;;;;;;5094554;28;20043;-66
2021/12/13 08:48:48;;;;;;;15.85;11.60;;;9.10;99.90;;;;;;5094721;28;20048;-67
2021/12/13 08:51:22;;;;;;;16.02;11.68;;;9.20;99.90;;;;;;5105598;28;20048;-66
2021/12/13 08:54:12;;;;;;;17.48;13.10;;;9.30;99.90;;;;;;5080086;28;20395;-65
2021/12/13 08:56:44;;;;;;;14.23;10.93;;;9.30;99.90;;;;;;5093328;28;20044;-65
2021/12/13 08:59:27;;;;;;;16.20;12.00;;;9.40;99.90;;;;;;5096001;28;20059;-65
2021/12/13 09:01:57;;;;;;;16.38;12.05;;;9.40;99.90;;;;;;5097831;28;20101;-65
2021/12/13 09:04:55;;;;;;;16.27;11.95;;;9.40;99.90;;;;;;5094197;28;20052;-65
2021/12/13 09:07:24;;;;;;;21.77;12.70;;;9.30;99.90;;;;;;5080522;28;20509;-66
2021/12/13 09:09:50;;;;;;;20.40;13.80;;;9.30;99.90;;;;;;5093528;28;20055;-66
2021/12/13 09:12:37;;;;;;;19.38;13.65;;;9.40;99.90;;;;;;5113785;28;20047;-66
2021/12/13 09:15:17;;;;;;;19.70;13.82;;;9.50;99.90;;;;;;5111858;28;20434;-65
2021/12/13 09:17:42;;;;;;;16.80;13.20;;;9.40;99.90;;;;;;5097121;28;20123;-66
2021/12/13 09:20:20;;;;;;;19.15;13.85;;;9.40;99.90;;;;;;5109558;28;20122;-65
2021/12/13 09:22:54;;;;;;;16.60;13.35;;;9.50;99.90;;;;;;5087422;28;20079;-66
2021/12/13 09:25:40;;;;;;;18.85;14.15;;;9.40;99.90;;;;;;5089238;28;20499;-65
2021/12/13 09:28:19;;;;;;;19.55;12.77;;;9.50;99.90;;;;;;5099783;28;20036;-66
2021/12/13 09:31:08;;;;;;;17.90;13.05;;;9.50;99.90;;;;;;5092537;28;20087;-65
2021/12/13 09:33:38;;;;;;;20.42;13.60;;;9.50;99.90;;;;;;5092160;28;20049;-65
2021/12/13 09:36:40;;;;;;;17.02;12.73;;;9.50;99.90;;;;;;5104827;28;20448;-66
2021/12/13 09:39:24;;;;;;;15.93;12.52;;;9.50;99.90;;;;;;5051473;28;20048;-66
2021/12/13 09:42:06;;;;;;;17.20;13.65;;;9.40;99.90;;;;;;5109095;28;20055;-66
2021/12/13 09:44:37;;;;;;;18.15;11.48;;;9.50;99.90;;;;;;5114270;28;20478;-65
2021/12/13 09:47:05;;;;;;;18.05;12.27;;;9.50;99.90;;;;;;5114027;28;20051;-66
2021/12/13 09:49:41;;;;;;;17.77;12.23;;;9.50;99.90;;;;;;5114463;28;20453;-66
2021/12/13 09:52:29;;;;;;;19.30;12.98;;;9.60;99.90;;;;;;5113039;28;20064;-65
2021/12/13 09:55:09;;;;;;;16.33;11.70;;;9.60;99.90;;;;;;5114700;27;20052;-65
2021/12/13 09:57:43;;;;;;;15.95;11.52;;;9.70;99.90;;;;;;5113279;28;20089;-66
2021/12/13 10:00:16;;;;;;;18.80;12.77;;;9.60;99.90;;;;;;5113936;28;20092;-66
2021/12/13 10:02:47;;;;;;;15.45;12.52;;;9.60;99.90;;;;;;5114319;27;20508;-66
2021/12/13 10:05:18;;;;;;;13.70;11.25;;;9.50;99.90;;;;;;5114684;28;20509;-66
2021/12/13 10:07:49;;;;;;;17.48;12.13;;;9.50;99.90;;;;;;5112348;28;20047;-66
2021/12/13 10:10:27;;;;;;;15.05;11.02;;;9.60;99.90;;;;;;5114406;28;20418;-66
2021/12/13 10:12:58;;;;;;;13.30;10.48;;;9.60;99.90;;;;;;5112075;28;20104;-66
2021/12/13 10:15:40;;;;;;;12.02;9.40;;;9.60;99.90;;;;;;5114481;28;20054;-66
2021/12/13 10:18:13;;;;;;;17.45;10.57;;;9.50;99.90;;;;;;5113317;28;20058;-66
2021/12/13 10:20:45;;;;;;;14.80;11.07;;;9.60;99.90;;;;;;5113440;28;20082;-66
2021/12/13 10:23:15;;;;;;;11.88;9.90;;;9.60;99.90;;;;;;5114253;28;20044;-66
2021/12/13 10:25:45;;;;;;;14.98;10.63;;;9.60;99.90;;;;;;5113983;27;20056;-66
2021/12/13 10:28:19;;;;;;;13.60;10.70;;;9.60;99.90;;;;;;5113450;28;20383;-66
2021/12/13 10:31:08;;;;;;;18.02;10.60;;;9.70;99.90;;;;;;5112506;28;20140;-66
2021/12/13 10:33:35;;;;;;;12.68;10.25;;;9.80;99.90;;;;;;5113481;27;20462;-65
2021/12/13 10:36:02;;;;;;;12.38;9.82;;;9.80;99.90;;;;;;5113561;28;20055;-65
2021/12/13 10:38:43;;;;;;;15.48;10.50;;;9.80;99.90;;;;;;5112881;28;20051;-65
2021/12/13 10:41:40;;;;;;;15.70;10.68;;;9.90;99.90;;;;;;5113367;28;20334;-65
2021/12/13 10:44:11;;;;;;;14.88;10.45;;;9.80;99.90;;;;;;5111848;28;20558;-65
2021/12/13 10:46:40;;;;;;;13.05;10.63;;;9.80;99.90;;;;;;5112263;28;20058;-65
2021/12/13 10:49:17;;;;;;;11.13;9.27;;;9.80;99.90;;;;;;5113079;28;20065;-65
2021/12/13 10:51:54;;;;;;;12.38;10.18;;;9.80;99.90;;;;;;5113510;28;20389;-65
2021/12/13 10:54:33;;;;;;;14.77;10.80;;;9.80;99.90;;;;;;5112510;28;20048;-65
2021/12/13 10:57:04;;;;;;;14.18;10.07;;;9.80;99.90;;;;;;5110468;28;20047;-65
2021/12/13 10:59:32;;;;;;;13.40;9.80;;;9.80;99.90;;;;;;5087337;28;20437;-65
2021/12/13 11:02:05;;;;;;;16.08;9.00;;;9.70;99.90;;;;;;5092421;28;20047;-65
2021/12/13 11:04:36;;;;;;;12.25;9.95;;;9.80;99.90;;;;;;5091377;28;20146;-65
2021/12/13 11:07:05;;;;;;;13.32;11.90;;;9.80;99.90;;;;;;5093007;28;20040;-65
2021/12/13 11:09:31;;;;;;;14.55;10.68;;;9.80;99.90;;;;;;5090699;28;20044;-65
2021/12/13 11:12:04;;;;;;;13.82;9.68;;;9.80;99.90;;;;;;5092904;28;20483;-65
2021/12/13 11:14:32;;;;;;;15.50;10.52;;;9.90;99.90;;;;;;5091549;28;20048;-63
2021/12/13 11:17:04;;;;;;;14.45;10.93;;;9.80;99.90;;;;;;5095891;28;20105;-63
2021/12/13 11:19:33;;;;;;;12.27;9.95;;;9.90;99.90;;;;;;5088758;28;20051;-63
2021/12/13 11:22:10;;;;;;;15.52;9.65;;;9.90;99.90;;;;;;5113228;28;20039;-63
2021/12/13 11:24:39;;;;;;;14.07;9.98;;;9.90;99.90;;;;;;5094808;28;20058;-63
2021/12/13 11:27:10;;;;;;;10.63;9.50;;;9.90;99.90;;;;;;5101649;28;20040;-63
2021/12/13 11:29:38;;;;;;;12.60;10.05;;;9.90;99.90;;;;;;5083071;28;20379;-63
2021/12/13 11:32:34;;;;;;;18.02;10.18;;;10.00;99.90;;;;;;5090212;28;20614;-63
2021/12/13 11:35:31;;;;;;;12.90;10.00;;;10.00;99.90;;;;;;5085582;28;20067;-63
2021/12/13 11:38:03;;;;;;;13.90;10.43;;;10.00;99.90;;;;;;5046149;28;20048;-63
2021/12/13 11:40:46;;;;;;;14.57;9.18;;;10.10;99.90;;;;;;5081203;28;20048;-63
2021/12/13 11:43:11;;;;;;;;;;;10.10;99.90;;;;;;5090650;28;20486;-64
2021/12/13 11:46:02;;;;;;;16.33;10.27;;;10.10;99.90;;;;;;5086991;28;19926;-63
2021/12/13 11:48:51;;;;;;;12.45;10.38;;;10.10;99.90;;;;;;5089620;28;20048;-63
2021/12/13 11:51:36;;;;;;;12.48;9.05;;;10.20;99.90;;;;;;5090254;28;20502;-63
2021/12/13 11:54:48;;;;;;;15.68;9.95;;;10.20;99.90;;;;;;5091044;28;20056;-63
2021/12/13 11:57:51;;;;;;;16.05;10.10;;;10.30;99.90;;;;;;5049604;28;20051;-63
2021/12/13 12:00:31;;;;;;;;;;;10.30;99.90;;;;;;5091954;28;20371;-63
2021/12/13 12:03:05;;;;;;;14.20;9.65;;;10.30;99.90;;;;;;5091277;28;19920;-64
2021/12/13 12:05:59;;;;;;;16.05;9.73;;;10.20;99.90;;;;;;5079383;28;20225;-63
2021/12/13 12:09:03;;;;;;;19.20;11.27;;;10.20;99.90;;;;;;5085674;28;20048;-63
2021/12/13 12:11:47;;;;;;;11.50;9.27;;;10.10;99.90;;;;;;5093542;28;20397;-63
2021/12/13 12:14:13;;;;;;;13.40;9.73;;;10.00;99.90;;;;;;5102381;28;20060;-63
2021/12/13 12:16:46;;;;;;;14.98;10.98;;;9.80;99.90;;;;;;5106110;28;20047;-63
2021/12/13 12:19:29;;;;;;;15.90;11.15;;;9.80;99.90;;;;;;5095962;28;20050;-63
2021/12/13 12:22:08;;;;;;;;;;;9.80;99.90;;;;;;5100048;28;20051;-63
2021/12/13 12:24:47;;;;;;;14.85;10.40;;;9.80;99.90;;;;;;5091649;28;19920;-63
2021/12/13 12:27:16;;;;;;;14.05;10.27;;;9.80;99.90;;;;;;5099682;28;20048;-63
2021/12/13 12:29:56;;;;;;;17.98;11.80;;;9.80;99.90;;;;;;5077341;28;20394;-63
2021/12/13 12:32:28;;;;;;;19.48;13.25;;;9.90;99.90;;;;;;5085165;28;20069;-63
2021/12/13 12:35:17;;;;;;;18.57;11.83;;;9.80;99.90;;;;;;5079957;28;20047;-63
2021/12/13 12:38:01;;;;;;;15.60;10.90;;;9.80;99.90;;;;;;5079073;28;20318;-63
2021/12/13 12:40:30;;;;;;;17.55;11.20;;;9.80;99.90;;;;;;5091831;28;20505;-64
2021/12/13 12:43:03;;;;;;;16.95;11.77;;;9.70;99.90;;;;;;5102427;28;20486;-63
2021/12/13 12:45:35;;;;;;;17.35;11.18;;;9.80;99.90;;;;;;5088079;28;20044;-63
2021/12/13 12:48:09;;;;;;;18.05;12.23;;;9.80;99.90;;;;;;5080057;28;20106;-64
2021/12/13 12:50:49;;;;;;;20.85;12.02;;;9.70;99.90;;;;;;5083046;28;20059;-64
2021/12/13 12:53:29;;;;;;;14.98;10.55;;;9.70;99.90;;;;;;5081455;28;20052;-63
2021/12/13 12:55:58;;;;;;;17.33;10.10;;;9.70;99.90;;;;;;5090956;28;20102;-64
2021/12/13 12:58:32;;;;;;;18.63;10.63;;;9.80;99.90;;;;;;5086296;28;20036;-64
2021/12/13 13:01:01;;;;;;;17.85;10.65;;;9.80;99.90;;;;;;5081960;28;20461;-63
2021/12/13 13:03:33;;;;;;;21.38;10.68;;;9.80;99.90;;;;;;5107621;28;20051;-63
2021/12/13 13:06:13;;;;;;;13.07;10.57;;;9.80;99.90;;;;;;5071157;28;20510;-63
2021/12/13 13:08:41;;;;;;;12.90;8.55;;;9.90;99.90;;;;;;5070338;28;20044;-63
2021/12/13 13:14:09;;;;;;;15.82;9.93;;;9.90;99.90;;;;;;5073561;28;20056;-63
2021/12/13 13:16:38;;;;;;;15.30;10.23;;;9.90;99.90;;;;;;5075653;28;20113;-63
2021/12/13 13:19:05;;;;;;;17.35;10.48;;;10.00;99.90;;;;;;5078993;28;20052;-63
2021/12/13 13:21:40;;;;;;;15.00;10.25;;;10.00;99.90;;;;;;5084030;28;20548;-64
2021/12/13 13:24:06;;;;;;;13.02;9.18;;;10.00;99.90;;;;;;5079704;28;20534;-63
2021/12/13 13:26:32;;;;;;;21.58;11.50;;;10.00;99.90;;;;;;5085329;28;20071;-63
2021/12/13 13:29:06;;;;;;;17.35;9.73;;;10.00;99.90;;;;;;5079145;28;20068;-64
2021/12/13 13:31:39;;;;;;;19.33;9.38;;;10.10;99.90;;;;;;5087333;28;20389;-63
2021/12/13 13:34:22;;;;;;;13.88;9.48;;;10.00;99.90;;;;;;5075763;28;20071;-63
2021/12/13 13:37:13;;;;;;;15.63;9.07;;;10.00;99.90;;;;;;5072324;28;20055;-64
2021/12/13 13:39:48;;;;;;;17.27;7.80;;;10.10;99.90;;;;;;5073528;28;20040;-63
2021/12/13 13:42:19;;;;;;;14.00;8.27;;;10.10;99.90;;;;;;5073209;28;20048;-64